createdAt,value
2022-11-04T00:00:10.054Z,99599.25
2022-11-04T00:01:11.976Z,99597.59
2022-11-04T00:02:14.893Z,99594.91
2022-11-04T00:03:16.890Z,99592.25
2022-11-04T00:04:21.410Z,99591.66
2022-11-04T00:05:23.274Z,99591.66
2022-11-04T00:06:26.730Z,99592.72
2022-11-04T00:07:47.262Z,99581.19
2022-11-04T00:08:50.976Z,99582.25
2022-11-04T00:09:53.853Z,99576.09
2022-11-04T00:11:29.590Z,99574.47
2022-11-04T00:12:31.576Z,99570.16
2022-11-04T00:13:34.960Z,99574.13
2022-11-04T00:14:38.161Z,99569.59
2022-11-04T00:15:58.967Z,99573.31
2022-11-04T00:17:20.045Z,99567.13
2022-11-04T00:18:22.256Z,99569.00
2022-11-04T00:19:25.626Z,99569.81
2022-11-04T00:20:46.455Z,99555.88
2022-11-04T00:22:07.086Z,99552.41
2022-11-04T00:23:27.573Z,99555.31
2022-11-04T00:24:44.816Z,99550.97
2022-11-04T00:26:05.178Z,99548.31
2022-11-04T00:27:27.036Z,99542.19
2022-11-04T00:28:45.097Z,99544.03
2022-11-04T00:29:48.478Z,99540.53
2022-11-04T00:30:55.254Z,99538.69
2022-11-04T00:32:18.099Z,99540.53
2022-11-04T00:33:25.833Z,99537.06
2022-11-04T00:34:27.824Z,99535.41
2022-11-04T00:35:30.827Z,99538.91
2022-11-04T00:36:33.011Z,99542.66
2022-11-04T00:37:38.048Z,99535.41
2022-11-04T00:38:40.040Z,99546.34
2022-11-04T00:39:43.026Z,99551.44
2022-11-04T00:40:45.137Z,99544.50
2022-11-04T00:41:48.170Z,99546.09
2022-11-04T00:42:50.214Z,99546.94
2022-11-04T00:43:53.511Z,99542.41
2022-11-04T00:44:56.963Z,99553.09
2022-11-04T00:45:59.977Z,99554.94
2022-11-04T00:47:02.001Z,99558.44
2022-11-04T00:48:05.736Z,99553.34
2022-11-04T00:49:07.943Z,99558.22
2022-11-04T00:50:11.207Z,99562.50
2022-11-04T00:52:16.137Z,99556.13
2022-11-04T00:53:19.142Z,99558.78
2022-11-04T00:54:21.126Z,99549.72
2022-11-04T00:55:24.094Z,99555.06
2022-11-04T00:56:26.300Z,99557.75
2022-11-04T00:57:29.355Z,99544.38
2022-11-04T00:58:31.401Z,99544.38
2022-11-04T00:59:34.393Z,99540.88
2022-11-04T01:00:38.200Z,99544.38
2022-11-04T01:01:41.565Z,99541.72
2022-11-04T01:02:43.747Z,99546.00
2022-11-04T01:03:47.931Z,99547.63
2022-11-04T01:04:49.993Z,99543.91
2022-11-04T01:05:53.020Z,99543.09
2022-11-04T01:06:55.526Z,99543.91
2022-11-04T01:07:58.674Z,99543.91
2022-11-04T01:09:03.323Z,99545.56
2022-11-04T01:10:07.256Z,99543.66
2022-11-04T01:11:10.605Z,99529.28
2022-11-04T01:12:13.767Z,99534.38
2022-11-04T01:13:15.801Z,99508.13
2022-11-04T01:14:19.535Z,99530.66
2022-11-04T01:15:21.769Z,99533.09
2022-11-04T01:17:30.376Z,99531.84
2022-11-04T01:18:33.703Z,99517.28
2022-11-04T01:19:35.926Z,99522.75
2022-11-04T01:20:38.938Z,99520.91
2022-11-04T01:21:41.066Z,99525.78
2022-11-04T01:22:44.139Z,99515.31
2022-11-04T01:23:46.540Z,99523.94
2022-11-04T01:24:49.560Z,99511.94
2022-11-04T01:25:51.598Z,99511.94
2022-11-04T01:26:54.645Z,99518.69
2022-11-04T01:27:56.671Z,99521.38
2022-11-04T01:29:00.190Z,99522.16
2022-11-04T01:30:03.265Z,99516.81
2022-11-04T01:31:06.352Z,99524.84
2022-11-04T01:32:10.770Z,99513.13
2022-11-04T01:33:13.034Z,99516.81
2022-11-04T01:34:16.040Z,99515.56
2022-11-04T01:35:18.095Z,99510.19
2022-11-04T01:36:21.695Z,99519.84
2022-11-04T01:37:23.864Z,99517.97
2022-11-04T01:38:26.908Z,99515.31
2022-11-04T01:39:28.933Z,99510.78
2022-11-04T01:40:36.742Z,99514.25
2022-11-04T01:41:39.051Z,99514.25
2022-11-04T01:42:42.162Z,99509.72
2022-11-04T01:43:48.524Z,99512.16
2022-11-04T01:44:54.737Z,99511.38
2022-11-04T01:45:59.838Z,99512.97
2022-11-04T01:47:02.939Z,99509.25
2022-11-04T01:48:13.707Z,99522.38
2022-11-04T01:49:23.982Z,99507.41
2022-11-04T01:50:29.888Z,99509.25
2022-11-04T01:51:36.288Z,99518.09
2022-11-04T01:52:43.710Z,99507.97
2022-11-04T01:53:47.496Z,99514.94
2022-11-04T01:54:54.236Z,99512.28
2022-11-04T01:55:59.881Z,99515.75
2022-11-04T01:57:04.083Z,99510.41
2022-11-04T01:58:10.296Z,99507.75
2022-11-04T01:59:16.870Z,99498.91
2022-11-04T02:00:20.389Z,99490.88
2022-11-04T02:01:22.576Z,99494.38
2022-11-04T02:02:25.872Z,99486.34
2022-11-04T02:03:32.916Z,99491.69
2022-11-04T02:04:38.919Z,99490.88
2022-11-04T02:05:43.327Z,99483.69
2022-11-04T02:06:47.291Z,99481.00
2022-11-04T02:07:52.930Z,99471.38
2022-11-04T02:08:54.976Z,99480.19
2022-11-04T02:09:58.124Z,99478.34
2022-11-04T02:11:02.401Z,99476.72
2022-11-04T02:12:23.689Z,99487.41
2022-11-04T02:13:26.537Z,99489.03
2022-11-04T02:14:29.969Z,99504.00
2022-11-04T02:15:41.511Z,99494.97
2022-11-04T02:16:45.751Z,99493.06
2022-11-04T02:18:08.200Z,99495.53
2022-11-04T02:19:31.637Z,99491.00
2022-11-04T02:21:02.898Z,99491.81
2022-11-04T02:22:40.041Z,99503.09
2022-11-04T02:24:03.480Z,99498.53
2022-11-04T02:25:32.699Z,99509.03
2022-11-04T02:27:11.887Z,99518.66
2022-11-04T02:28:33.472Z,99510.41
2022-11-04T02:29:51.228Z,99498.88
2022-11-04T02:31:02.444Z,99503.97
2022-11-04T02:32:15.067Z,99500.53
2022-11-04T02:33:25.669Z,99489.59
2022-11-04T02:34:38.421Z,99495.50
2022-11-04T02:35:49.876Z,99490.97
2022-11-04T02:37:01.215Z,99485.59
2022-11-04T02:38:14.229Z,99478.41
2022-11-04T02:39:29.105Z,99487.25
2022-11-04T02:40:40.507Z,99493.63
2022-11-04T02:41:53.703Z,99496.31
2022-11-04T02:43:02.375Z,99498.97
2022-11-04T02:44:15.144Z,99505.16
2022-11-04T02:45:25.955Z,99499.81
2022-11-04T02:46:33.061Z,99500.63
2022-11-04T02:47:39.401Z,99505.97
2022-11-04T02:48:46.671Z,99505.97
2022-11-04T02:49:56.372Z,99496.06
2022-11-04T02:51:05.150Z,99499.81
2022-11-04T02:52:10.789Z,99494.44
2022-11-04T02:53:17.014Z,99505.97
2022-11-04T02:54:24.299Z,99493.28
2022-11-04T02:55:30.964Z,99503.53
2022-11-04T02:56:37.420Z,99504.31
2022-11-04T02:57:42.351Z,99508.88
2022-11-04T02:58:51.350Z,99500.28
2022-11-04T02:59:57.499Z,99510.75
2022-11-04T03:01:04.543Z,99514.22
2022-11-04T03:02:10.336Z,99510.97
2022-11-04T03:03:17.153Z,99510.75
2022-11-04T03:04:25.011Z,99506.44
2022-11-04T03:05:32.239Z,99511.56
2022-11-04T03:06:36.480Z,99513.19
2022-11-04T03:07:42.971Z,99512.09
2022-11-04T03:08:49.617Z,99512.09
2022-11-04T03:09:55.777Z,99510.25
2022-11-04T03:11:04.443Z,99509.22
2022-11-04T03:12:14.846Z,99497.47
2022-11-04T03:13:22.062Z,99489.34
2022-11-04T03:14:31.816Z,99491.06
2022-11-04T03:15:36.918Z,99486.78
2022-11-04T03:16:46.322Z,99492.69
2022-11-04T03:17:55.456Z,99482.00
2022-11-04T03:19:03.471Z,99480.13
2022-11-04T03:20:10.085Z,99479.91
2022-11-04T03:21:15.314Z,99492.47
2022-11-04T03:22:20.749Z,99494.06
2022-11-04T03:23:23.945Z,99498.63
2022-11-04T03:24:26.540Z,99494.91
2022-11-04T03:25:37.398Z,99493.84
2022-11-04T03:26:44.866Z,99491.97
2022-11-04T03:27:57.144Z,99494.66
2022-11-04T03:29:13.390Z,99501.63
2022-11-04T03:31:24.901Z,99504.28
2022-11-04T03:32:38.630Z,99506.19
2022-11-04T03:33:46.336Z,99507.78
2022-11-04T03:34:48.830Z,99505.13
2022-11-04T03:35:51.920Z,99514.78
2022-11-04T03:36:53.997Z,99516.41
2022-11-04T03:37:58.413Z,99513.72
2022-11-04T03:39:00.414Z,99519.91
2022-11-04T03:40:04.193Z,99518.84
2022-11-04T03:41:12.579Z,99516.97
2022-11-04T03:42:23.289Z,99515.09
2022-11-04T03:43:27.752Z,99512.41
2022-11-04T03:44:31.212Z,99509.53
2022-11-04T03:45:33.362Z,99506.84
2022-11-04T03:46:36.884Z,99500.44
2022-11-04T03:47:41.031Z,99498.84
2022-11-04T03:48:46.566Z,99502.31
2022-11-04T03:49:50.092Z,99480.13
2022-11-04T03:50:53.118Z,99475.31
2022-11-04T03:51:55.132Z,99493.78
2022-11-04T03:52:59.905Z,99506.13
2022-11-04T03:54:02.034Z,99512.31
2022-11-04T03:55:07.523Z,99515.00
2022-11-04T03:56:34.292Z,99511.25
2022-11-04T03:57:47.222Z,99511.00
2022-11-04T03:59:06.369Z,99509.94
2022-11-04T04:00:12.987Z,99512.41
2022-11-04T04:01:28.355Z,99508.66
2022-11-04T04:02:49.546Z,99508.66
2022-11-04T04:03:58.916Z,99511.94
2022-11-04T04:05:06.035Z,99500.16
2022-11-04T04:06:16.399Z,99502.00
2022-11-04T04:07:22.914Z,99504.47
2022-11-04T04:08:35.485Z,99506.09
2022-11-04T04:09:42.207Z,99506.91
2022-11-04T04:10:53.928Z,99507.72
2022-11-04T04:12:03.005Z,99508.28
2022-11-04T04:13:15.149Z,99509.94
2022-11-04T04:14:38.119Z,99508.88
2022-11-04T04:15:45.635Z,99519.34
2022-11-04T04:16:49.734Z,99522.81
2022-11-04T04:17:59.661Z,99517.22
2022-11-04T04:19:06.957Z,99527.69
2022-11-04T04:20:15.134Z,99527.69
2022-11-04T04:21:22.511Z,99537.34
2022-11-04T04:22:29.350Z,99532.81
2022-11-04T04:23:52.846Z,99537.91
2022-11-04T04:25:16.943Z,99541.41
2022-11-04T04:26:40.629Z,99546.78
2022-11-04T04:27:45.902Z,99543.84
2022-11-04T04:28:50.527Z,99532.09
2022-11-04T04:29:54.811Z,99533.72
2022-11-04T04:31:00.247Z,99544.44
2022-11-04T04:32:05.306Z,99538.84
2022-11-04T04:33:11.741Z,99545.00
2022-11-04T04:34:14.831Z,99550.13
2022-11-04T04:35:36.220Z,99558.94
2022-11-04T04:36:45.279Z,99561.63
2022-11-04T04:37:48.783Z,99565.94
2022-11-04T04:39:09.166Z,99559.75
2022-11-04T04:40:34.618Z,99569.41
2022-11-04T04:41:55.243Z,99571.88
2022-11-04T04:43:15.644Z,99582.34
2022-11-04T04:44:41.995Z,99572.44
2022-11-04T04:45:52.051Z,99587.47
2022-11-04T04:46:56.771Z,99581.03
2022-11-04T04:48:00.199Z,99580.78
2022-11-04T04:49:07.855Z,99586.16
2022-11-04T04:50:12.592Z,99588.81
2022-11-04T04:51:14.824Z,99585.38
2022-11-04T04:52:18.009Z,99592.31
2022-11-04T04:53:21.217Z,99600.59
2022-11-04T04:54:23.274Z,99589.66
2022-11-04T04:55:26.252Z,99603.03
2022-11-04T04:56:28.367Z,99599.53
2022-11-04T04:57:31.423Z,99602.22
2022-11-04T04:58:33.456Z,99612.69
2022-11-04T04:59:36.480Z,99611.06
2022-11-04T05:00:38.497Z,99604.88
2022-11-04T05:01:41.605Z,99611.06
2022-11-04T05:02:44.091Z,99612.91
2022-11-04T05:03:47.194Z,99608.38
2022-11-04T05:04:50.557Z,99619.09
2022-11-04T05:05:56.285Z,99618.28
2022-11-04T05:07:00.754Z,99630.63
2022-11-04T05:08:07.724Z,99624.47
2022-11-04T05:09:10.314Z,99626.53
2022-11-04T05:10:16.053Z,99630.06
2022-11-04T05:11:20.565Z,99635.41
2022-11-04T05:12:47.361Z,99621.44
2022-11-04T05:13:49.439Z,99632.97
2022-11-04T05:14:52.657Z,99631.31
2022-11-04T05:15:54.668Z,99631.31
2022-11-04T05:16:58.382Z,99636.69
2022-11-04T05:18:03.342Z,99634.00
2022-11-04T05:19:05.355Z,99638.56
2022-11-04T05:20:11.905Z,99647.38
2022-11-04T05:21:15.920Z,99649.28
2022-11-04T05:22:18.979Z,99642.28
2022-11-04T05:23:21.334Z,99641.47
2022-11-04T05:24:24.429Z,99646.81
2022-11-04T05:25:26.450Z,99652.19
2022-11-04T05:26:29.479Z,99654.03
2022-11-04T05:27:31.581Z,99655.06
2022-11-04T05:28:34.645Z,99661.25
2022-11-04T05:29:36.729Z,99660.44
2022-11-04T05:30:40.012Z,99658.81
2022-11-04T05:31:42.026Z,99655.31
2022-11-04T05:32:45.026Z,99660.66
2022-11-04T05:33:47.010Z,99656.38
2022-11-04T05:34:50.098Z,99662.53
2022-11-04T05:35:54.543Z,99655.78
2022-11-04T05:36:56.529Z,99663.00
2022-11-04T05:37:59.533Z,99662.19
2022-11-04T05:39:01.707Z,99663.81
2022-11-04T05:40:05.347Z,99656.03
2022-11-04T05:41:09.355Z,99682.78
2022-11-04T05:42:12.371Z,99662.44
2022-11-04T05:43:14.392Z,99660.56
2022-11-04T05:44:17.481Z,99660.56
2022-11-04T05:45:19.755Z,99666.97
2022-11-04T05:46:22.955Z,99667.22
2022-11-04T05:47:25.051Z,99675.47
2022-11-04T05:48:28.553Z,99674.66
2022-11-04T05:49:30.677Z,99680.59
2022-11-04T05:50:34.825Z,99685.13
2022-11-04T05:51:38.227Z,99683.50
2022-11-04T05:52:41.320Z,99678.94
2022-11-04T05:53:43.816Z,99702.25
2022-11-04T05:54:47.578Z,99682.44
2022-11-04T05:55:49.632Z,99680.84
2022-11-04T05:56:52.720Z,99680.84
2022-11-04T05:57:54.957Z,99681.84
2022-11-04T05:58:58.025Z,99682.44
2022-11-04T06:00:00.082Z,99677.34
2022-11-04T06:01:14.039Z,99689.09
2022-11-04T06:02:16.236Z,99697.91
2022-11-04T06:03:19.371Z,99696.31
2022-11-04T06:04:21.540Z,99696.31
2022-11-04T06:05:24.753Z,99698.38
2022-11-04T06:06:29.236Z,99700.84
2022-11-04T06:07:33.639Z,99698.16
2022-11-04T06:08:35.777Z,99698.16
2022-11-04T06:09:41.554Z,99709.69
2022-11-04T06:10:43.870Z,99709.69
2022-11-04T06:11:47.016Z,99718.78
2022-11-04T06:12:49.083Z,99712.59
2022-11-04T06:13:52.524Z,99716.09
2022-11-04T06:14:54.588Z,99718.78
2022-11-04T06:15:57.749Z,99718.78
2022-11-04T06:17:01.193Z,99728.66
2022-11-04T06:18:03.374Z,99720.63
2022-11-04T06:19:09.681Z,99727.84
2022-11-04T06:20:14.134Z,99730.50
2022-11-04T06:21:26.259Z,99724.56
2022-11-04T06:22:28.344Z,99728.06
2022-11-04T06:23:32.893Z,99722.94
2022-11-04T06:24:35.960Z,99736.09
2022-11-04T06:25:38.027Z,99724.56
2022-11-04T06:26:41.107Z,99721.34
2022-11-04T06:27:44.135Z,99736.34
2022-11-04T06:28:46.212Z,99726.69
2022-11-04T06:29:49.314Z,99721.53
2022-11-04T06:30:51.350Z,99721.53
2022-11-04T06:31:54.402Z,99726.09
2022-11-04T06:32:56.613Z,99734.13
2022-11-04T06:33:59.678Z,99730.03
2022-11-04T06:35:01.694Z,99733.53
2022-11-04T06:36:07.481Z,99732.94
2022-11-04T06:37:10.230Z,99732.38
2022-11-04T06:38:13.238Z,99733.44
2022-11-04T06:39:17.017Z,99731.00
2022-11-04T06:40:20.116Z,99745.38
2022-11-04T06:41:22.217Z,99744.84
2022-11-04T06:42:26.937Z,99746.69
2022-11-04T06:43:28.982Z,99750.41
2022-11-04T06:44:39.927Z,99746.34
2022-11-04T06:45:44.751Z,99744.94
2022-11-04T06:46:48.443Z,99752.63
2022-11-04T06:47:50.462Z,99737.84
2022-11-04T06:48:53.731Z,99746.09
2022-11-04T06:49:55.731Z,99751.91
2022-11-04T06:50:59.702Z,99762.84
2022-11-04T06:52:03.349Z,99756.91
2022-11-04T06:53:05.667Z,99754.47
2022-11-04T06:54:09.012Z,99752.25
2022-11-04T06:55:12.482Z,99750.84
2022-11-04T06:56:15.683Z,99753.75
2022-11-04T06:57:17.821Z,99764.09
2022-11-04T06:58:20.992Z,99754.44
2022-11-04T06:59:24.030Z,99750.34
2022-11-04T07:00:27.122Z,99753.25
2022-11-04T07:01:32.779Z,99751.63
2022-11-04T07:02:36.572Z,99756.41
2022-11-04T07:03:38.750Z,99757.44
2022-11-04T07:04:41.807Z,99754.19
2022-11-04T07:05:43.764Z,99764.06
2022-11-04T07:06:46.829Z,99761.38
2022-11-04T07:07:48.853Z,99781.16
2022-11-04T07:08:53.513Z,99770.47
2022-11-04T07:09:55.541Z,99773.94
2022-11-04T07:10:59.946Z,99773.94
2022-11-04T07:12:02.923Z,99783.84
2022-11-04T07:13:05.067Z,99782.19
2022-11-04T07:14:08.855Z,99782.41
2022-11-04T07:15:12.952Z,99788.59
2022-11-04T07:16:15.668Z,99782.41
2022-11-04T07:17:18.878Z,99791.50
2022-11-04T07:18:21.063Z,99788.00
2022-11-04T07:19:24.066Z,99783.69
2022-11-04T07:20:26.309Z,99788.69
2022-11-04T07:21:29.865Z,99785.78
2022-11-04T07:22:32.100Z,99782.28
2022-11-04T07:23:35.571Z,99802.84
2022-11-04T07:24:37.545Z,99796.69
2022-11-04T07:25:40.598Z,99804.72
2022-11-04T07:26:45.015Z,99813.34
2022-11-04T07:27:47.057Z,99808.00
2022-11-04T07:28:50.618Z,99828.09
2022-11-04T07:29:52.609Z,99820.31
2022-11-04T07:30:57.242Z,99815.78
2022-11-04T07:31:59.424Z,99824.03
2022-11-04T07:33:02.472Z,99822.97
2022-11-04T07:34:05.646Z,99825.66
2022-11-04T07:35:08.283Z,99828.31
2022-11-04T07:36:13.468Z,99827.72
2022-11-04T07:37:15.489Z,99833.06
2022-11-04T07:38:18.476Z,99833.31
2022-11-04T07:39:21.642Z,99830.63
2022-11-04T07:40:24.637Z,99842.59
2022-11-04T07:41:27.727Z,99843.41
2022-11-04T07:42:31.113Z,99847.13
2022-11-04T07:43:41.348Z,99844.69
2022-11-04T07:44:43.354Z,99847.34
2022-11-04T07:45:46.396Z,99849.19
2022-11-04T07:46:48.538Z,99849.44
2022-11-04T07:47:51.593Z,99852.09
2022-11-04T07:48:58.291Z,99853.94
2022-11-04T07:50:00.426Z,99854.78
2022-11-04T07:51:04.397Z,99860.13
2022-11-04T07:52:06.411Z,99857.44
2022-11-04T07:53:10.546Z,99853.72
2022-11-04T07:54:13.967Z,99855.59
2022-11-04T07:55:18.547Z,99848.16
2022-11-04T07:56:21.152Z,99846.06
2022-11-04T07:57:24.187Z,99842.16
2022-11-04T07:58:29.375Z,99848.09
2022-11-04T07:59:32.488Z,99852.16
2022-11-04T08:00:35.469Z,99851.91
2022-11-04T08:01:38.540Z,99848.78
2022-11-04T08:02:40.903Z,99845.69
2022-11-04T08:03:44.225Z,99847.06
2022-11-04T08:04:46.390Z,99853.03
2022-11-04T08:05:56.473Z,99848.03
2022-11-04T08:06:59.114Z,99859.09
2022-11-04T08:08:02.236Z,99856.97
2022-11-04T08:09:05.569Z,99863.75
2022-11-04T08:10:10.072Z,99861.44
2022-11-04T08:11:17.647Z,99866.56
2022-11-04T08:12:20.955Z,99868.78
2022-11-04T08:13:24.196Z,99868.53
2022-11-04T08:14:28.690Z,99862.97
2022-11-04T08:15:30.793Z,99859.84
2022-11-04T08:16:34.636Z,99866.81
2022-11-04T08:17:37.747Z,99862.06
2022-11-04T08:18:40.794Z,99858.34
2022-11-04T08:19:43.855Z,99862.88
2022-11-04T08:20:50.627Z,99871.72
2022-11-04T08:21:52.770Z,99860.00
2022-11-04T08:22:55.823Z,99862.66
2022-11-04T08:23:57.992Z,99863.22
2022-11-04T08:25:01.046Z,99861.38
2022-11-04T08:26:07.878Z,99864.88
2022-11-04T08:27:11.162Z,99874.53
2022-11-04T08:28:17.611Z,99874.06
2022-11-04T08:29:20.841Z,99872.19
2022-11-04T08:30:24.393Z,99874.66
2022-11-04T08:31:29.679Z,99870.13
2022-11-04T08:32:32.686Z,99877.09
2022-11-04T08:33:35.417Z,99887.78
2022-11-04T08:34:38.689Z,99882.22
2022-11-04T08:35:42.817Z,99887.56
2022-11-04T08:36:47.070Z,99881.97
2022-11-04T08:37:50.147Z,99880.13
2022-11-04T08:38:53.126Z,99878.28
2022-11-04T08:39:56.253Z,99885.00
2022-11-04T08:41:00.274Z,99874.91
2022-11-04T08:42:03.526Z,99881.69
2022-11-04T08:43:05.560Z,99876.09
2022-11-04T08:44:09.100Z,99879.34
2022-11-04T08:45:11.231Z,99885.50
2022-11-04T08:46:16.156Z,99881.81
2022-11-04T08:47:18.491Z,99886.09
2022-11-04T08:48:21.535Z,99879.91
2022-11-04T08:49:24.564Z,99880.50
2022-11-04T08:50:27.878Z,99878.66
2022-11-04T08:51:32.619Z,99883.78
2022-11-04T08:52:35.658Z,99891.56
2022-11-04T08:53:37.982Z,99888.66
2022-11-04T08:54:41.033Z,99908.00
2022-11-04T08:55:43.062Z,99896.22
2022-11-04T08:56:46.126Z,99896.22
2022-11-04T08:57:48.111Z,99909.63
2022-11-04T08:58:51.540Z,99899.38
2022-11-04T08:59:54.584Z,99897.28
2022-11-04T09:00:56.620Z,99897.06
2022-11-04T09:02:01.135Z,99898.91
2022-11-04T09:03:04.323Z,99901.59
2022-11-04T09:04:08.163Z,99898.66
2022-11-04T09:05:11.318Z,99897.66
2022-11-04T09:06:15.764Z,99906.25
2022-11-04T09:07:18.851Z,99907.06
2022-11-04T09:08:20.834Z,99914.06
2022-11-04T09:09:23.843Z,99910.34
2022-11-04T09:10:26.825Z,99907.41
2022-11-04T09:11:30.067Z,99917.91
2022-11-04T09:12:32.164Z,99907.78
2022-11-04T09:13:39.392Z,99920.94
2022-11-04T09:14:43.092Z,99921.75
2022-11-04T09:15:45.162Z,99925.03
2022-11-04T09:16:48.167Z,99925.63
2022-11-04T09:17:51.592Z,99926.19
2022-11-04T09:18:54.650Z,99925.16
2022-11-04T09:19:57.632Z,99934.59
2022-11-04T09:21:00.519Z,99929.00
2022-11-04T09:22:03.506Z,99925.31
2022-11-04T09:23:05.888Z,99932.88
2022-11-04T09:24:09.199Z,99930.78
2022-11-04T09:25:11.239Z,99933.22
2022-11-04T09:26:16.664Z,99931.38
2022-11-04T09:27:18.689Z,99923.09
2022-11-04T09:28:21.738Z,99936.25
2022-11-04T09:29:24.746Z,99932.53
2022-11-04T09:30:27.084Z,99932.53
2022-11-04T09:31:31.656Z,99944.88
2022-11-04T09:32:33.687Z,99937.88
2022-11-04T09:33:38.303Z,99939.28
2022-11-04T09:34:41.314Z,99945.69
2022-11-04T09:35:43.352Z,99936.03
2022-11-04T09:36:47.543Z,99940.56
2022-11-04T09:37:50.600Z,99934.38
2022-11-04T09:38:53.932Z,99940.19
2022-11-04T09:39:56.148Z,99942.09
2022-11-04T09:41:00.904Z,99948.47
2022-11-04T09:42:31.918Z,99954.06
2022-11-04T09:43:41.089Z,99948.34
2022-11-04T09:45:20.178Z,99945.91
2022-11-04T09:46:15.562Z,99954.16
2022-11-04T09:47:21.873Z,99948.19
2022-11-04T09:48:28.758Z,99954.59
2022-11-04T09:49:38.353Z,99944.91
2022-11-04T09:50:46.814Z,99959.59
2022-11-04T09:51:55.289Z,99950.50
2022-11-04T09:53:04.077Z,99960.44
2022-11-04T09:54:14.834Z,99959.38
2022-11-04T09:55:22.157Z,99954.59
2022-11-04T09:56:28.179Z,99958.69
2022-11-04T09:57:33.083Z,99967.09
2022-11-04T09:58:39.244Z,99990.72
2022-11-04T09:59:42.284Z,99972.34
2022-11-04T10:00:49.349Z,99978.06
2022-11-04T10:02:06.877Z,99987.50
2022-11-04T10:03:27.108Z,99965.03
2022-11-04T10:04:41.978Z,99967.47
2022-11-04T10:06:00.515Z,99970.97
2022-11-04T10:07:18.033Z,99974.25
2022-11-04T10:08:45.897Z,99977.47
2022-11-04T10:10:00.506Z,99984.25
2022-11-04T10:11:07.363Z,99976.56
2022-11-04T10:12:23.408Z,99976.94
2022-11-04T10:13:33.780Z,99970.03
2022-11-04T10:15:12.896Z,99967.94
2022-11-04T10:16:26.711Z,99964.56
2022-11-04T10:17:49.020Z,99965.16
2022-11-04T10:19:12.795Z,99970.28
2022-11-04T10:20:29.474Z,99969.00
2022-11-04T10:21:42.120Z,99972.28
2022-11-04T10:22:55.596Z,99971.22
2022-11-04T10:24:08.488Z,99970.16
2022-11-04T10:25:16.001Z,99969.94
2022-11-04T10:26:27.951Z,99966.44
2022-11-04T10:27:34.552Z,99968.88
2022-11-04T10:28:42.921Z,99971.31
2022-11-04T10:29:49.614Z,99972.75
2022-11-04T10:30:58.665Z,99966.31
2022-11-04T10:32:04.814Z,99967.94
2022-11-04T10:33:13.221Z,99961.31
2022-11-04T10:34:28.979Z,99953.03
2022-11-04T10:35:37.912Z,99958.97
2022-11-04T10:36:41.917Z,99961.19
2022-11-04T10:37:43.998Z,99964.69
2022-11-04T10:38:49.831Z,99955.81
2022-11-04T10:39:57.160Z,99965.72
2022-11-04T10:41:06.889Z,99963.88
2022-11-04T10:42:12.585Z,99961.66
2022-11-04T10:43:18.957Z,99970.28
2022-11-04T10:44:25.227Z,99974.59
2022-11-04T10:45:35.927Z,99960.34
2022-11-04T10:46:51.850Z,99961.19
2022-11-04T10:48:00.342Z,99962.81
2022-11-04T10:49:11.613Z,99967.13
2022-11-04T10:50:31.352Z,99967.72
2022-11-04T10:51:36.189Z,99955.09
2022-11-04T10:52:40.038Z,99957.00
2022-11-04T10:53:44.473Z,99961.53
2022-11-04T10:54:48.836Z,99959.09
2022-11-04T10:56:00.436Z,99960.94
2022-11-04T10:57:02.953Z,99959.88
2022-11-04T10:58:17.239Z,99962.81
2022-11-04T10:59:25.766Z,99970.59
2022-11-04T11:00:40.193Z,99969.34
2022-11-04T11:01:50.225Z,99975.88
2022-11-04T11:02:52.474Z,99974.56
2022-11-04T11:03:56.278Z,99963.59
2022-11-04T11:05:14.349Z,99966.63
2022-11-04T11:06:25.740Z,99969.09
2022-11-04T11:07:37.793Z,99991.94
2022-11-04T11:08:41.544Z,99979.91
2022-11-04T11:09:54.082Z,99996.59
2022-11-04T11:10:56.983Z,99993.66
2022-11-04T11:12:02.293Z,99990.75
2022-11-04T11:13:07.476Z,99996.69
2022-11-04T11:14:18.151Z,99986.09
2022-11-04T11:15:30.258Z,99992.63
2022-11-04T11:16:33.354Z,99991.06
2022-11-04T11:17:42.486Z,99993.28
2022-11-04T11:18:45.721Z,99997.94
2022-11-04T11:19:52.244Z,100002.84
2022-11-04T11:21:11.634Z,100003.75
2022-11-04T11:22:32.754Z,99995.22
2022-11-04T11:23:39.547Z,100003.88
2022-11-04T11:24:42.578Z,100008.16
2022-11-04T11:25:50.339Z,100002.81
2022-11-04T11:26:55.236Z,100016.84
2022-11-04T11:28:06.468Z,100019.72
2022-11-04T11:29:12.957Z,100020.56
2022-11-04T11:30:23.499Z,100025.94
2022-11-04T11:31:26.955Z,100035.38
2022-11-04T11:32:33.284Z,100041.94
2022-11-04T11:33:39.181Z,100043.88
2022-11-04T11:34:45.620Z,100040.47
2022-11-04T11:35:52.139Z,100037.06
2022-11-04T11:36:56.835Z,100039.06
2022-11-04T11:38:04.101Z,100038.34
2022-11-04T11:39:17.173Z,100044.38
2022-11-04T11:40:34.230Z,100038.63
2022-11-04T11:41:53.268Z,100042.22
2022-11-04T11:42:56.611Z,100043.34
2022-11-04T11:44:03.707Z,100046.63
2022-11-04T11:45:17.693Z,100042.91
2022-11-04T11:46:23.282Z,100031.91
2022-11-04T11:47:38.259Z,100046.97
2022-11-04T11:48:43.441Z,100054.44
2022-11-04T11:49:46.577Z,100049.06
2022-11-04T11:50:56.867Z,100056.00
2022-11-04T11:52:27.590Z,100054.84
2022-11-04T11:53:34.204Z,100057.19
2022-11-04T11:54:39.216Z,100058.94
2022-11-04T11:55:47.965Z,100052.44
2022-11-04T12:01:26.663Z,100044.09
2022-11-04T12:02:35.612Z,100053.41
2022-11-04T12:09:57.336Z,100055.31
2022-11-04T12:11:08.759Z,100053.19
2022-11-04T12:12:23.829Z,100054.34
2022-11-04T12:13:30.138Z,100059.22
2022-11-04T12:14:49.545Z,100056.31
2022-11-04T12:16:10.531Z,100059.00
2022-11-04T12:17:27.201Z,100058.44
2022-11-04T12:19:07.190Z,100053.75
2022-11-04T12:20:34.194Z,100062.78
2022-11-04T12:21:42.422Z,100055.22
2022-11-04T12:22:51.259Z,100054.88
2022-11-04T12:24:01.151Z,100061.75
2022-11-04T12:25:15.901Z,100059.88
2022-11-04T12:26:29.816Z,100062.81
2022-11-04T12:27:40.993Z,100065.50
2022-11-04T12:28:58.912Z,100070.03
2022-11-04T12:30:06.879Z,100073.78
2022-11-04T12:31:23.438Z,100072.13
2022-11-04T12:32:37.802Z,100068.66
2022-11-04T12:33:47.543Z,100072.38
2022-11-04T12:35:10.975Z,100063.50
2022-11-04T12:36:39.718Z,100072.81
2022-11-04T12:37:55.759Z,100073.06
2022-11-04T12:39:21.265Z,100070.84
2022-11-04T12:40:29.490Z,100068.19
2022-11-04T12:42:06.740Z,100068.41
2022-11-04T12:43:21.082Z,100069.22
2022-11-04T12:44:32.708Z,100070.84
2022-11-04T12:45:48.100Z,100077.84
2022-11-04T12:47:02.011Z,100068.53
2022-11-04T12:48:10.005Z,100083.69
2022-11-04T12:49:39.849Z,100080.06
2022-11-04T12:51:02.633Z,100085.88
2022-11-04T12:52:20.305Z,100079.56
2022-11-04T12:53:50.752Z,100081.78
2022-11-04T12:55:07.319Z,100089.34
2022-11-04T12:56:13.733Z,100084.81
2022-11-04T12:57:26.247Z,100090.97
2022-11-04T12:58:44.555Z,100089.34
2022-11-04T13:00:06.573Z,100084.47
2022-11-04T13:01:15.684Z,100088.78
2022-11-04T13:02:25.256Z,100111.31
2022-11-04T13:03:34.773Z,100092.53
2022-11-04T13:04:42.011Z,100084.47
2022-11-04T13:05:50.061Z,100085.28
2022-11-04T13:06:55.109Z,100086.91
2022-11-04T13:08:13.791Z,100090.66
2022-11-04T13:09:22.576Z,100089.00
2022-11-04T13:10:34.269Z,100090.88
2022-11-04T13:11:44.634Z,100097.31
2022-11-04T13:12:49.690Z,100090.88
2022-11-04T13:14:02.268Z,100091.47
2022-11-04T13:15:14.239Z,100092.28
2022-11-04T13:16:17.459Z,100090.41
2022-11-04T13:17:25.662Z,100093.09
2022-11-04T13:18:35.125Z,100087.72